Time;durP1;ratioP1;P1;durP2;ratioP2;P2;SDS_P1;SDS_P2;PMS_P1;PMS_P2;Temp;Humidity;BMP_temperature;BMP_pressure;BME280_temperature;BME280_humidity;BME280_pressure;Samples;Min_cycle;Max_cycle;Signal;HPM_P1;HPM_P2
2021/07/30 00:00:42;;;;;;;10.30;4.20;;;;;;;14.95;71.53;100814.00;4999013;28;20559;-76
2021/07/30 00:03:08;;;;;;;7.20;2.80;;;;;;;15.11;71.49;100828.75;4995272;28;20204;-76
2021/07/30 00:05:34;;;;;;;8.53;4.00;;;;;;;15.10;72.11;100844.16;4990587;28;20185;-76
2021/07/30 00:07:59;;;;;;;10.00;5.53;;;;;;;14.84;72.31;100823.72;5002183;28;20304;-78
2021/07/30 00:10:27;;;;;;;21.73;13.20;;;;;;;14.76;72.56;100826.72;5004493;28;20444;-76
2021/07/30 00:12:55;;;;;;;12.47;3.30;;;;;;;15.22;72.26;100887.44;5000276;28;20664;-76
2021/07/30 00:15:22;;;;;;;18.80;14.03;;;;;;;14.98;72.22;100850.53;4997018;28;20436;-78
2021/07/30 00:17:48;;;;;;;10.23;4.40;;;;;;;15.15;71.94;100859.66;4997087;28;20456;-77
2021/07/30 00:20:13;;;;;;;36.63;21.90;;;;;;;15.07;72.55;100866.22;4997388;28;20448;-77
2021/07/30 00:22:39;;;;;;;8.43;4.73;;;;;;;15.05;72.53;100865.63;5000890;28;21046;-77
2021/07/30 00:25:05;;;;;;;9.43;6.07;;;;;;;14.79;72.68;100825.44;4999787;28;20681;-77
2021/07/30 00:27:30;;;;;;;7.03;2.97;;;;;;;14.90;72.48;100835.50;5001526;28;20668;-77
2021/07/30 00:29:55;;;;;;;30.17;22.27;;;;;;;14.72;72.03;100778.78;4997231;28;20669;-76
2021/07/30 00:32:21;;;;;;;9.07;3.50;;;;;;;14.38;73.56;100784.59;5000012;28;20301;-78
2021/07/30 00:34:46;;;;;;;7.13;4.37;;;;;;;15.02;73.65;100884.97;5001712;28;20221;-77
2021/07/30 00:37:11;;;;;;;56.00;38.20;;;;;;;14.97;74.04;100884.84;5000294;28;20201;-78
2021/07/30 00:39:37;;;;;;;12.30;5.07;;;;;;;14.40;74.24;100797.84;4996122;28;20702;-79
2021/07/30 00:42:02;;;;;;;7.00;3.80;;;;;;;15.05;73.77;100878.31;4999396;28;20193;-77
2021/07/30 00:44:29;;;;;;;12.13;8.40;;;;;;;14.87;74.69;100881.84;4998481;28;20192;-77
2021/07/30 00:46:56;;;;;;;10.50;4.03;;;;;;;14.23;74.52;100787.66;4997620;28;20197;-77
2021/07/30 00:49:21;;;;;;;59.20;39.23;;;;;;;14.79;74.89;100882.97;4997350;28;21039;-77
2021/07/30 00:51:47;;;;;;;12.00;8.03;;;;;;;14.77;75.10;100876.16;5001573;28;20553;-77
2021/07/30 00:54:13;;;;;;;13.70;4.13;;;;;;;14.82;74.60;100877.13;5003850;28;20188;-78
2021/07/30 00:56:38;;;;;;;6.60;3.23;;;;;;;14.87;74.10;100850.28;4997697;28;20304;-76
2021/07/30 00:59:06;;;;;;;7.30;4.00;;;;;;;14.70;74.98;100876.22;5000034;28;20190;-77
2021/07/30 01:01:32;;;;;;;11.17;3.53;;;;;;;14.51;75.49;100866.44;5001488;28;20549;-78
2021/07/30 01:03:57;;;;;;;65.43;52.00;;;;;;;14.17;74.59;100777.72;4998916;28;20449;-76
2021/07/30 01:06:23;;;;;;;9.33;4.40;;;;;;;14.83;74.16;100842.84;4996607;28;20213;-77
2021/07/30 01:08:49;;;;;;;5.67;3.60;;;;;;;14.04;74.95;100759.00;5002977;28;20280;-78
2021/07/30 01:11:14;;;;;;;7.90;3.47;;;;;;;14.45;75.16;100833.88;5002813;28;20436;-77
2021/07/30 01:13:39;;;;;;;16.03;4.20;;;;;;;12.92;75.41;100624.25;5004973;28;20193;-78
2021/07/30 01:16:05;;;;;;;11.90;4.30;;;;;;;14.11;74.88;100767.03;4999709;28;20210;-78
2021/07/30 01:18:30;;;;;;;8.40;4.43;;;;;;;14.54;75.18;100845.25;4998800;28;20533;-77
2021/07/30 01:21:17;;;;;;;10.97;5.00;;;;;;;14.51;75.03;100837.56;5003306;28;20197;-78
2021/07/30 01:23:42;;;;;;;6.70;5.60;;;;;;;14.15;75.17;100781.72;5003058;28;20677;-78
2021/07/30 01:26:08;;;;;;;8.47;4.00;;;;;;;14.13;75.87;100825.09;5003419;28;20437;-79
2021/07/30 01:28:33;;;;;;;75.20;51.87;;;;;;;13.71;75.46;100732.38;4999970;28;20298;-79
2021/07/30 01:31:03;;;;;;;32.93;20.50;;;;;;;13.91;75.44;100761.84;5005401;28;20191;-78
2021/07/30 01:33:29;;;;;;;13.53;7.03;;;;;;;14.41;75.51;100854.28;5002328;28;20208;-78
2021/07/30 01:35:54;;;;;;;12.20;8.00;;;;;;;14.52;75.74;100876.22;5003874;28;20495;-78
2021/07/30 01:38:19;;;;;;;11.17;5.13;;;;;;;14.40;75.68;100851.81;5001097;28;20586;-77
2021/07/30 01:40:45;;;;;;;17.73;10.30;;;;;;;14.47;75.90;100872.28;5003306;28;20272;-77
2021/07/30 01:43:10;;;;;;;6.27;4.77;;;;;;;14.43;75.71;100868.38;5001716;28;20622;-77
2021/07/30 01:45:36;;;;;;;8.83;5.00;;;;;;;13.95;75.62;100788.16;5003232;28;20236;-77
2021/07/30 01:48:01;;;;;;;15.70;12.17;;;;;;;13.90;75.62;100771.81;5004225;28;20228;-77
2021/07/30 01:50:26;;;;;;;18.47;14.57;;;;;;;14.39;75.84;100866.34;5004255;28;20189;-78
2021/07/30 01:52:52;;;;;;;9.63;5.67;;;;;;;14.03;75.52;100808.63;5005793;28;20235;-77
2021/07/30 01:55:17;;;;;;;11.03;6.17;;;;;;;14.11;75.79;100829.06;5005395;28;20562;-78
2021/07/30 01:57:42;;;;;;;130.07;92.07;;;;;;;14.12;74.88;100787.56;5003870;28;20216;-77
2021/07/30 02:00:08;;;;;;;28.13;22.20;;;;;;;14.21;75.50;100826.69;5005703;28;20204;-77
2021/07/30 02:02:34;;;;;;;130.23;87.33;;;;;;;14.05;75.83;100802.97;5009261;28;20205;-77
2021/07/30 02:05:00;;;;;;;15.37;10.27;;;;;;;14.41;76.28;100870.47;5001103;28;20440;-77
2021/07/30 02:07:26;;;;;;;9.37;5.53;;;;;;;14.42;76.28;100864.03;4998217;28;20215;-78
2021/07/30 02:09:52;;;;;;;10.67;5.40;;;;;;;14.30;76.52;100865.81;4996352;28;20448;-77
2021/07/30 02:12:17;;;;;;;44.17;38.10;;;;;;;13.82;75.47;100787.44;5001245;28;20444;-77
2021/07/30 02:14:43;;;;;;;28.60;17.83;;;;;;;13.49;76.39;100746.25;5000839;28;20217;-78
2021/07/30 02:17:08;;;;;;;10.27;4.87;;;;;;;13.81;76.74;100813.56;5002636;28;20221;-77
2021/07/30 02:19:33;;;;;;;14.63;11.37;;;;;;;13.78;76.23;100785.19;5003512;28;20191;-77
2021/07/30 02:21:59;;;;;;;28.47;14.57;;;;;;;12.18;76.15;100566.63;5002519;28;20205;-77
2021/07/30 02:24:24;;;;;;;9.70;5.90;;;;;;;14.08;75.54;100816.84;5003141;28;20239;-77
2021/07/30 02:26:52;;;;;;;11.50;8.93;;;;;;;14.52;74.96;100866.22;5001696;28;20213;-78
2021/07/30 02:29:18;;;;;;;10.97;6.40;;;;;;;14.28;75.87;100870.59;5002248;28;20682;-76
2021/07/30 02:31:43;;;;;;;12.93;7.43;;;;;;;14.26;76.05;100867.28;5002528;28;20452;-77
2021/07/30 02:34:08;;;;;;;11.20;6.60;;;;;;;14.05;76.02;100830.78;5002450;28;20185;-77
2021/07/30 02:36:35;;;;;;;11.23;5.83;;;;;;;14.04;76.73;100856.09;5001224;28;20950;-77
2021/07/30 02:39:00;;;;;;;7.67;5.30;;;;;;;12.71;76.12;100636.22;5004838;28;20209;-78
2021/07/30 02:41:25;;;;;;;10.83;6.40;;;;;;;13.59;75.80;100761.91;5005209;28;20506;-78
2021/07/30 02:43:51;;;;;;;12.90;6.37;;;;;;;12.15;76.32;100567.03;5005757;28;20196;-77
2021/07/30 02:46:16;;;;;;;11.50;5.30;;;;;;;14.08;76.99;100875.34;5002797;28;20189;-77
2021/07/30 02:48:46;;;;;;;11.13;6.87;;;;;;;14.23;76.84;100863.19;5003355;28;20197;-77
2021/07/30 02:51:12;;;;;;;27.80;21.57;;;;;;;14.13;77.46;100870.94;5004216;28;20193;-77
2021/07/30 02:53:39;;;;;;;15.40;9.80;;;;;;;13.90;77.89;100851.88;5002584;28;20474;-78
2021/07/30 02:56:05;;;;;;;12.57;7.87;;;;;;;13.77;77.61;100810.50;5001223;28;20467;-77
2021/07/30 02:58:30;;;;;;;16.27;10.40;;;;;;;12.82;77.54;100677.75;5003053;28;20440;-77
2021/07/30 03:00:56;;;;;;;19.17;11.50;;;;;;;13.92;77.82;100869.47;5001097;28;20450;-79
2021/07/30 03:03:22;;;;;;;9.17;5.63;;;;;;;13.55;78.02;100790.38;5002717;28;20216;-78
2021/07/30 03:05:50;;;;;;;14.33;10.10;;;;;;;13.59;77.47;100779.97;5000395;28;20189;-77
2021/07/30 03:08:15;;;;;;;15.40;9.53;;;;;;;13.97;77.49;100836.44;5003267;28;20591;-77
2021/07/30 03:10:41;;;;;;;90.07;62.13;;;;;;;13.94;78.29;100877.34;5000775;28;20440;-77
2021/07/30 03:13:06;;;;;;;11.57;6.63;;;;;;;14.17;77.84;100863.25;4999877;28;20228;-77
2021/07/30 03:15:31;;;;;;;9.03;7.43;;;;;;;13.85;77.65;100824.72;5004600;28;20193;-78
2021/07/30 03:17:57;;;;;;;51.10;30.03;;;;;;;13.24;77.73;100731.91;5002078;28;20776;-78
2021/07/30 03:20:22;;;;;;;10.30;6.90;;;;;;;13.92;78.48;100855.19;5000206;28;20217;-77
2021/07/30 03:22:47;;;;;;;11.77;6.80;;;;;;;13.36;77.55;100764.38;5001673;28;20193;-77
2021/07/30 03:25:13;;;;;;;9.80;5.90;;;;;;;13.96;77.91;100843.72;4997719;28;20193;-77
2021/07/30 03:27:38;;;;;;;22.83;6.80;;;;;;;13.18;77.90;100709.38;5000080;28;20216;-77
2021/07/30 03:30:04;;;;;;;11.83;6.67;;;;;;;13.61;78.42;100821.00;5002813;28;20195;-77
2021/07/30 03:32:30;;;;;;;10.93;6.83;;;;;;;13.59;78.02;100786.16;5000496;28;20280;-77
2021/07/30 03:34:55;;;;;;;12.07;9.13;;;;;;;13.78;79.09;100844.50;4999565;28;20447;-77
2021/07/30 03:37:20;;;;;;;13.30;6.30;;;;;;;14.07;78.26;100846.75;5000729;28;20244;-77
2021/07/30 03:39:46;;;;;;;25.20;13.97;;;;;;;13.41;78.17;100775.34;4999080;28;20193;-77
2021/07/30 03:42:11;;;;;;;9.33;8.23;;;;;;;14.12;78.33;100850.44;4999426;28;20674;-77
2021/07/30 03:44:37;;;;;;;17.87;12.50;;;;;;;13.95;79.02;100863.66;5000648;28;20606;-77
2021/07/30 03:47:03;;;;;;;10.13;6.83;;;;;;;13.04;79.72;100740.94;5000111;28;20205;-77
2021/07/30 03:49:28;;;;;;;17.40;12.07;;;;;;;14.12;78.70;100869.31;5000824;28;20185;-77
2021/07/30 03:51:53;;;;;;;11.73;8.77;;;;;;;13.67;79.20;100818.25;5001681;28;20975;-77
2021/07/30 03:54:19;;;;;;;9.20;7.13;;;;;;;13.48;78.69;100747.31;5000352;28;20189;-77
2021/07/30 03:56:45;;;;;;;84.13;69.00;;;;;;;14.12;78.64;100853.13;5000326;28;20673;-78
2021/07/30 03:59:11;;;;;;;9.93;6.50;;;;;;;13.89;79.01;100839.44;5001738;28;20559;-77
2021/07/30 04:01:37;;;;;;;12.93;6.27;;;;;;;13.33;78.67;100722.53;4999086;28;20650;-77
2021/07/30 04:04:02;;;;;;;56.13;36.50;;;;;;;13.77;79.81;100831.25;5000092;28;20476;-77
2021/07/30 04:06:28;;;;;;;46.27;31.73;;;;;;;12.91;79.13;100681.00;5000124;28;20502;-77
2021/07/30 04:08:53;;;;;;;33.10;20.80;;;;;;;13.98;78.62;100846.19;5000791;28;20653;-78
2021/07/30 04:11:19;;;;;;;13.50;7.13;;;;;;;13.60;79.71;100813.94;5000903;28;20193;-78
2021/07/30 04:13:46;;;;;;;62.07;46.03;;;;;;;13.64;79.28;100812.47;4997666;28;20200;-78
2021/07/30 04:16:12;;;;;;;14.93;6.47;;;;;;;14.05;79.03;100857.75;4998324;28;20472;-77
2021/07/30 04:18:37;;;;;;;11.87;7.80;;;;;;;12.91;79.08;100694.47;4998829;28;20463;-77
2021/07/30 04:21:04;;;;;;;48.63;35.77;;;;;;;13.92;79.45;100855.19;5001258;28;20456;-77
2021/07/30 04:23:29;;;;;;;12.20;7.63;;;;;;;12.12;78.88;100570.16;4999399;28;20227;-78
2021/07/30 04:25:55;;;;;;;13.87;6.80;;;;;;;14.11;78.86;100845.25;4997320;28;20535;-77
2021/07/30 04:28:20;;;;;;;10.47;6.37;;;;;;;12.80;78.72;100669.06;5002342;28;20785;-77
2021/07/30 04:30:45;;;;;;;93.73;60.97;;;;;;;12.88;79.26;100679.56;4999503;28;20200;-78
2021/07/30 04:33:11;;;;;;;14.07;6.20;;;;;;;13.93;79.40;100848.72;4998389;28;20190;-77
2021/07/30 04:35:37;;;;;;;11.30;6.20;;;;;;;14.15;78.65;100849.97;4996959;28;20190;-77
2021/07/30 04:38:03;;;;;;;97.30;70.57;;;;;;;12.32;79.20;100626.50;5000160;28;20237;-78
2021/07/30 04:40:28;;;;;;;97.97;68.33;;;;;;;12.24;78.83;100570.28;5003317;28;20967;-77
2021/07/30 04:43:00;;;;;;;24.10;16.37;;;;;;;14.15;79.08;100863.47;5001045;28;20764;-77
2021/07/30 04:45:25;;;;;;;10.17;6.83;;;;;;;13.35;79.18;100733.94;5001777;28;20662;-77
2021/07/30 04:47:51;;;;;;;15.07;6.80;;;;;;;13.43;78.42;100716.69;5007378;28;20451;-78
2021/07/30 04:50:17;;;;;;;12.13;7.00;;;;;;;13.70;78.99;100755.81;5001172;28;20210;-78
2021/07/30 04:52:42;;;;;;;435.17;344.00;;;;;;;14.25;79.25;100850.28;4997543;28;20196;-77
2021/07/30 04:55:08;;;;;;;15.30;7.63;;;;;;;13.90;78.18;100770.97;5010040;28;20284;-77
2021/07/30 04:57:33;;;;;;;97.10;71.17;;;;;;;13.75;79.46;100785.63;4998913;28;20250;-77
2021/07/30 04:59:59;;;;;;;16.53;7.17;;;;;;;13.88;79.12;100798.16;4997468;28;20650;-77
2021/07/30 05:02:24;;;;;;;11.47;7.90;;;;;;;13.71;78.91;100754.78;4999886;28;20284;-77
2021/07/30 05:04:53;;;;;;;126.30;103.70;;;;;;;13.78;79.93;100800.53;5000570;28;20275;-77
2021/07/30 05:07:19;;;;;;;13.53;8.50;;;;;;;14.19;79.67;100853.88;4998312;28;20296;-78
2021/07/30 05:09:44;;;;;;;12.47;7.43;;;;;;;12.84;78.88;100613.75;4998225;28;20527;-78
2021/07/30 05:12:10;;;;;;;10.97;7.47;;;;;;;13.81;79.51;100781.22;5000133;28;20193;-77
2021/07/30 05:14:35;;;;;;;461.33;392.40;;;;;;;14.24;79.20;100870.22;4999049;28;20203;-77
2021/07/30 05:17:00;;;;;;;43.80;28.10;;;;;;;14.52;78.07;100851.91;4996603;28;20224;-78
2021/07/30 05:19:26;;;;;;;55.37;27.37;;;;;;;14.14;78.24;100807.03;5001001;28;20275;-77
2021/07/30 05:21:51;;;;;;;21.47;13.37;;;;;;;13.85;79.48;100778.91;4997320;28;20220;-79
2021/07/30 05:24:16;;;;;;;41.80;21.90;;;;;;;14.31;79.23;100862.06;5006744;28;20609;-79
2021/07/30 05:26:42;;;;;;;19.20;10.13;;;;;;;14.51;78.48;100871.84;5000099;28;20255;-78
2021/07/30 05:29:09;;;;;;;16.00;8.40;;;;;;;14.32;79.20;100852.94;4997663;28;20193;-77
2021/07/30 05:31:35;;;;;;;36.13;23.70;;;;;;;13.66;78.77;100726.84;4994325;28;20186;-76
2021/07/30 05:34:01;;;;;;;42.30;33.07;;;;;;;13.63;78.98;100732.69;5000512;28;20536;-77
2021/07/30 05:36:26;;;;;;;29.60;21.57;;;;;;;13.63;78.54;100727.28;4999161;28;20267;-77
2021/07/30 05:38:51;;;;;;;9.80;7.10;;;;;;;13.95;78.20;100774.66;4998619;28;20200;-77
2021/07/30 05:41:17;;;;;;;130.53;82.53;;;;;;;14.48;78.68;100852.34;4999437;28;20200;-76
2021/07/30 05:43:44;;;;;;;10.90;8.57;;;;;;;13.91;78.95;100769.91;5015499;28;20600;-77
2021/07/30 05:46:10;;;;;;;19.00;10.33;;;;;;;14.52;78.55;100854.63;4996812;28;20661;-77
2021/07/30 05:48:36;;;;;;;56.77;33.27;;;;;;;14.63;78.29;100859.28;4996646;28;20491;-79
2021/07/30 05:51:02;;;;;;;15.10;8.40;;;;;;;14.40;78.05;100811.31;4999935;28;20987;-78
2021/07/30 05:53:27;;;;;;;15.03;7.77;;;;;;;14.32;77.87;100769.28;5002671;28;20252;-77
2021/07/30 05:55:53;;;;;;;11.27;7.27;;;;;;;14.70;77.38;100819.53;4998713;28;20213;-77
2021/07/30 05:58:19;;;;;;;16.03;8.30;;;;;;;14.74;77.95;100850.41;5000689;28;21396;-79
2021/07/30 06:00:44;;;;;;;14.40;9.33;;;;;;;14.20;78.03;100776.47;5005689;28;20239;-77
2021/07/30 06:03:10;;;;;;;162.90;97.67;;;;;;;14.79;77.94;100849.75;5001698;28;20450;-77
2021/07/30 06:05:36;;;;;;;44.07;23.33;;;;;;;14.50;77.37;100792.75;5002465;28;20224;-78
2021/07/30 06:08:05;;;;;;;41.13;25.87;;;;;;;14.87;77.33;100819.75;4996808;28;20198;-77
2021/07/30 06:10:32;;;;;;;13.47;7.60;;;;;;;14.53;77.70;100775.31;4999025;28;20196;-77
2021/07/30 06:12:58;;;;;;;20.00;11.63;;;;;;;15.14;77.34;100849.91;4999114;28;20479;-78
2021/07/30 06:15:24;;;;;;;17.77;9.73;;;;;;;15.12;77.50;100858.25;5001948;28;20476;-78
2021/07/30 06:17:51;;;;;;;12.40;7.33;;;;;;;14.85;77.50;100794.84;5000162;28;20480;-77
2021/07/30 06:20:16;;;;;;;14.17;8.30;;;;;;;14.70;77.28;100781.75;5001948;28;20805;-78
2021/07/30 06:22:42;;;;;;;15.03;7.20;;;;;;;15.40;76.54;100847.91;4994961;28;20487;-76
2021/07/30 06:25:08;;;;;;;36.60;20.50;;;;;;;15.46;76.71;100864.00;4996738;28;20208;-79
2021/07/30 06:27:34;;;;;;;12.30;8.57;;;;;;;15.22;76.71;100803.66;5000881;28;20216;-77
2021/07/30 06:30:05;;;;;;;11.27;7.07;;;;;;;15.26;77.48;100829.16;5002743;28;20441;-76
2021/07/30 06:32:30;;;;;;;12.07;7.70;;;;;;;15.10;77.02;100790.13;5000729;28;20184;-78
2021/07/30 06:34:56;;;;;;;279.07;198.47;;;;;;;15.55;76.54;100842.88;5002674;28;20515;-77
2021/07/30 06:37:21;;;;;;;38.70;26.63;;;;;;;15.59;76.60;100833.25;5002103;28;20707;-77
2021/07/30 06:39:46;;;;;;;251.87;161.43;;;;;;;15.10;76.38;100756.84;5002019;28;20255;-78
2021/07/30 06:42:12;;;;;;;16.40;8.70;;;;;;;15.68;76.97;100844.56;5003327;28;20225;-77
2021/07/30 06:44:37;;;;;;;26.80;17.13;;;;;;;13.83;76.30;100562.63;5002014;28;20199;-78
2021/07/30 06:47:03;;;;;;;404.17;283.30;;;;;;;15.80;76.10;100837.31;5004704;28;20711;-78
2021/07/30 06:49:29;;;;;;;125.53;79.20;;;;;;;15.88;76.06;100837.00;5010198;28;20189;-78
2021/07/30 06:51:54;;;;;;;17.63;8.90;;;;;;;15.64;76.01;100802.81;5003005;28;20447;-77
2021/07/30 06:54:20;;;;;;;14.47;7.07;;;;;;;14.93;76.30;100694.59;5006823;28;20597;-77
2021/07/30 06:56:45;;;;;;;13.40;7.20;;;;;;;16.01;76.04;100839.44;4999034;28;20224;-77
2021/07/30 06:59:12;;;;;;;27.03;14.67;;;;;;;15.92;75.64;100794.06;4998262;28;20186;-77
2021/07/30 07:01:37;;;;;;;20.73;10.03;;;;;;;15.67;75.46;100767.19;5003882;28;20490;-80
2021/07/30 07:04:03;;;;;;;17.47;9.30;;;;;;;15.85;74.98;100804.16;5006747;28;20437;-78
2021/07/30 07:06:28;;;;;;;20.03;10.87;;;;;;;16.03;75.18;100796.75;5001076;28;20775;-77
2021/07/30 07:08:56;;;;;;;63.57;41.67;;;;;;;16.48;75.21;100842.13;4997807;28;20190;-76
2021/07/30 07:11:21;;;;;;;12.33;7.60;;;;;;;16.43;74.95;100833.06;5001746;28;20273;-76
2021/07/30 07:13:47;;;;;;;16.27;9.50;;;;;;;15.66;75.02;100716.88;5003405;28;20531;-78
2021/07/30 07:16:12;;;;;;;174.03;99.60;;;;;;;16.50;74.86;100840.00;5000825;28;20592;-77
2021/07/30 07:18:37;;;;;;;11.73;9.70;;;;;;;16.09;74.67;100754.41;5000532;28;20224;-77
2021/07/30 07:21:03;;;;;;;53.37;34.07;;;;;;;16.81;74.77;100837.97;4999133;28;21905;-78
2021/07/30 07:23:28;;;;;;;257.53;182.97;;;;;;;16.52;74.01;100809.16;5003256;28;20292;-78
2021/07/30 07:25:54;;;;;;;94.33;60.30;;;;;;;16.64;73.52;100824.31;5004513;28;20185;-78
2021/07/30 07:28:19;;;;;;;622.97;467.03;;;;;;;15.75;74.01;100696.56;4999807;28;20205;-78
2021/07/30 07:30:45;;;;;;;23.53;12.87;;;;;;;16.58;73.89;100797.41;4998629;28;20201;-78
2021/07/30 07:33:10;;;;;;;20.70;12.70;;;;;;;16.43;73.68;100765.38;5004488;28;20276;-77
2021/07/30 07:35:35;;;;;;;33.20;18.23;;;;;;;16.95;73.84;100846.63;5004237;28;20688;-78
2021/07/30 07:38:05;;;;;;;317.60;209.60;;;;;;;17.03;73.43;100840.00;5001547;28;20209;-77
2021/07/30 07:40:31;;;;;;;345.10;251.13;;;;;;;17.20;73.50;100848.19;5006400;28;20204;-78
2021/07/30 07:42:57;;;;;;;176.67;116.93;;;;;;;16.47;72.73;100710.53;5003690;28;20574;-78
2021/07/30 07:45:23;;;;;;;86.77;57.33;;;;;;;16.82;72.93;100757.53;5001002;28;20452;-78
2021/07/30 07:47:48;;;;;;;74.80;51.63;;;;;;;17.05;73.04;100819.75;5005917;28;20241;-80
2021/07/30 07:50:14;;;;;;;28.30;16.03;;;;;;;17.07;72.24;100792.41;5004019;28;20445;-76
2021/07/30 07:52:39;;;;;;;15.90;10.03;;;;;;;17.44;71.76;100824.50;4998942;28;20282;-79
2021/07/30 07:55:07;;;;;;;15.27;8.50;;;;;;;16.85;71.78;100774.13;5008740;28;20185;-77
2021/07/30 07:57:32;;;;;;;14.77;9.23;;;;;;;16.85;71.60;100752.44;5005584;28;20248;-78
2021/07/30 07:59:58;;;;;;;171.23;120.33;;;;;;;17.49;71.90;100827.31;5008797;28;20452;-78
2021/07/30 08:02:23;;;;;;;98.03;62.47;;;;;;;17.26;71.65;100787.59;5007712;28;20193;-78
2021/07/30 08:04:49;;;;;;;15.33;5.70;;;;;;;17.51;71.04;100831.41;5004827;28;20201;-80
2021/07/30 08:07:17;;;;;;;246.20;155.87;;;;;;;17.49;71.24;100825.41;5008622;28;20207;-79
2021/07/30 08:09:43;;;;;;;50.87;27.37;;;;;;;17.12;70.68;100743.72;5006583;28;20196;-77
2021/07/30 08:12:11;;;;;;;338.83;210.90;;;;;;;17.28;70.34;100767.31;5006867;28;20447;-80
2021/07/30 08:14:38;;;;;;;11.90;8.07;;;;;;;17.87;70.49;100829.31;5004373;28;20552;-77
2021/07/30 08:17:03;;;;;;;11.50;6.53;;;;;;;17.90;70.19;100803.56;4993017;28;20483;-77
2021/07/30 08:19:33;;;;;;;12.40;5.87;;;;;;;18.04;70.27;100837.44;4996462;28;20870;-76
2021/07/30 08:21:58;;;;;;;16.17;6.37;;;;;;;18.01;70.28;100795.34;5001853;28;20177;-77
2021/07/30 08:24:24;;;;;;;33.80;22.70;;;;;;;17.93;68.16;100776.75;4998928;28;20448;-80
2021/07/30 08:26:49;;;;;;;83.03;43.40;;;;;;;17.93;69.34;100765.09;5011015;28;20300;-77
2021/07/30 08:29:18;;;;;;;186.70;115.53;;;;;;;18.17;68.63;100823.53;4999434;28;20181;-78
2021/07/30 08:31:43;;;;;;;14.57;8.07;;;;;;;17.81;68.85;100752.44;4996210;28;20186;-78
2021/07/30 08:34:11;;;;;;;12.13;5.60;;;;;;;18.36;68.63;100826.78;4992291;28;21284;-75
2021/07/30 08:36:37;;;;;;;10.20;5.60;;;;;;;18.46;68.65;100815.25;4995902;28;20217;-77
2021/07/30 08:39:03;;;;;;;123.23;85.90;;;;;;;18.64;68.15;100833.13;5003807;28;20432;-78
2021/07/30 08:41:28;;;;;;;12.80;8.97;;;;;;;18.72;67.78;100832.69;4996417;28;20670;-77
2021/07/30 08:43:55;;;;;;;240.53;191.73;;;;;;;18.71;67.37;100823.69;4995111;28;20455;-76
2021/07/30 08:46:24;;;;;;;18.13;9.47;;;;;;;18.27;67.33;100780.22;4993885;28;20209;-78
2021/07/30 08:48:51;;;;;;;67.20;31.80;;;;;;;18.30;67.04;100793.28;5004085;28;20455;-78
2021/07/30 08:51:19;;;;;;;45.53;28.43;;;;;;;18.52;66.94;100822.38;5000905;28;20444;-75
2021/07/30 08:53:46;;;;;;;20.80;13.17;;;;;;;18.76;66.94;100808.56;4998913;28;20444;-77
2021/07/30 08:56:12;;;;;;;123.93;75.17;;;;;;;18.20;66.09;100738.88;4996481;28;20469;-76
2021/07/30 08:58:37;;;;;;;68.50;48.77;;;;;;;18.48;65.70;100777.78;4999673;28;20502;-78
2021/07/30 09:01:03;;;;;;;15.83;10.43;;;;;;;18.53;64.95;100767.78;5000470;28;20268;-77
2021/07/30 09:03:38;;;;;;;410.43;306.93;;;;;;;18.80;64.69;100834.97;4996541;28;20192;-79
2021/07/30 09:06:17;;;;;;;18.03;7.47;;;;;;;18.82;63.35;100818.41;4999779;28;20189;-81
2021/07/30 09:08:43;;;;;;;13.23;9.13;;;;;;;18.98;63.45;100828.41;5003735;28;20439;-78
2021/07/30 09:11:08;;;;;;;17.90;6.40;;;;;;;18.63;64.02;100741.81;5001004;28;22837;-78
2021/07/30 09:13:35;;;;;;;9.90;6.17;;;;;;;18.97;64.15;100780.53;4999034;28;20531;-78
2021/07/30 09:16:04;;;;;;;135.57;88.70;;;;;;;19.13;63.80;100814.97;4998810;28;20204;-77
2021/07/30 09:18:44;;;;;;;15.93;10.90;;;;;;;19.26;63.96;100821.88;5002584;28;20428;-78
2021/07/30 09:21:33;;;;;;;12.07;5.70;;;;;;;19.37;63.38;100815.47;4995155;28;20451;-77
2021/07/30 09:24:02;;;;;;;9.60;5.77;;;;;;;19.45;63.63;100818.81;5000554;28;20511;-81
2021/07/30 09:26:32;;;;;;;30.03;16.77;;;;;;;19.53;62.99;100827.31;4998747;28;20851;-79
2021/07/30 09:29:00;;;;;;;17.20;10.70;;;;;;;19.33;63.37;100810.81;4997965;28;20806;-78
2021/07/30 09:31:37;;;;;;;12.40;6.77;;;;;;;19.31;62.84;100810.25;4995912;28;20449;-78
2021/07/30 09:34:13;;;;;;;39.67;16.63;;;;;;;19.23;62.96;100814.22;4998094;28;20439;-80
2021/07/30 09:36:43;;;;;;;214.17;160.80;;;;;;;19.12;62.90;100818.78;4999984;28;20476;-77
2021/07/30 09:39:08;;;;;;;16.03;6.60;;;;;;;19.34;62.83;100818.69;4998293;28;20447;-78
2021/07/30 09:41:34;;;;;;;78.43;48.73;;;;;;;18.79;62.23;100772.75;4998632;28;20448;-80
2021/07/30 09:44:07;;;;;;;19.47;9.77;;;;;;;18.87;62.74;100740.50;4997156;28;20185;-79
2021/07/30 09:46:36;;;;;;;23.90;17.07;;;;;;;19.39;61.90;100810.59;4998650;28;20551;-79
2021/07/30 09:49:01;;;;;;;15.00;8.30;;;;;;;19.05;62.73;100743.94;4997340;28;20492;-77
2021/07/30 09:51:27;;;;;;;11.77;6.37;;;;;;;19.35;61.29;100804.03;4995178;28;20437;-79
2021/07/30 09:53:54;;;;;;;19.17;7.00;;;;;;;19.04;61.33;100758.59;5001347;28;20189;-80
2021/07/30 09:56:23;;;;;;;14.97;7.40;;;;;;;19.37;61.91;100804.59;5001790;28;20912;-79
2021/07/30 09:58:55;;;;;;;9.93;7.63;;;;;;;18.87;60.88;100698.91;5002317;28;20988;-78
2021/07/30 10:01:21;;;;;;;29.10;17.50;;;;;;;19.47;60.57;100793.00;5002742;28;20428;-79
2021/07/30 10:03:50;;;;;;;59.40;37.93;;;;;;;19.25;60.38;100740.56;4998762;28;20879;-77
2021/07/30 10:06:16;;;;;;;6.90;4.50;;;;;;;19.49;60.90;100755.44;4995107;28;20499;-77
2021/07/30 10:08:42;;;;;;;11.10;5.40;;;;;;;19.51;60.47;100780.50;4998963;28;20444;-80
2021/07/30 10:11:10;;;;;;;10.17;4.90;;;;;;;17.86;61.07;100528.41;4998352;28;21446;-78
2021/07/30 10:13:46;;;;;;;23.13;15.63;;;;;;;19.29;59.43;100745.22;5000616;28;20451;-77
2021/07/30 10:16:13;;;;;;;6.97;4.73;;;;;;;19.50;59.33;100775.31;4998995;28;20479;-77
2021/07/30 10:18:40;;;;;;;10.30;4.93;;;;;;;19.25;59.42;100707.94;4999632;28;21006;-77
2021/07/30 10:21:06;;;;;;;6.70;4.37;;;;;;;19.27;58.74;100671.25;4999362;28;20804;-78
2021/07/30 10:23:32;;;;;;;19.43;14.50;;;;;;;19.48;59.20;100702.13;5002721;28;20441;-77
2021/07/30 10:26:00;;;;;;;11.77;5.00;;;;;;;19.87;58.12;100718.19;5002010;28;20181;-78
2021/07/30 10:28:28;;;;;;;19.93;8.80;;;;;;;20.50;57.67;100775.41;5002501;28;20980;-80
2021/07/30 10:30:59;;;;;;;12.87;5.00;;;;;;;20.73;57.41;100764.06;5000860;28;20435;-78
2021/07/30 10:33:30;;;;;;;17.23;7.40;;;;;;;20.71;56.43;100771.72;5002992;28;20966;-80
2021/07/30 10:36:06;;;;;;;7.90;4.70;;;;;;;20.24;54.52;100715.38;5002151;28;20440;-79
2021/07/30 10:38:33;;;;;;;48.10;31.03;;;;;;;20.29;54.06;100763.59;5010491;28;20454;-78
2021/07/30 10:40:58;;;;;;;4.60;2.80;;;;;;;20.54;54.61;100766.47;5005388;28;20443;-78
2021/07/30 10:43:33;;;;;;;6.80;4.10;;;;;;;20.24;52.37;100742.59;5004392;28;20991;-79
2021/07/30 10:46:05;;;;;;;5.30;3.77;;;;;;;20.43;53.13;100758.50;5003757;28;20184;-77
2021/07/30 10:48:31;;;;;;;4.77;3.27;;;;;;;20.44;53.32;100760.94;4999025;28;20437;-77
2021/07/30 10:51:01;;;;;;;5.60;3.50;;;;;;;20.41;53.40;100752.50;5003490;28;20448;-77
2021/07/30 10:53:38;;;;;;;6.80;3.70;;;;;;;20.17;52.12;100755.66;5004553;28;20793;-77
2021/07/30 10:56:16;;;;;;;3.50;3.10;;;;;;;20.40;49.82;100764.47;4999023;28;20464;-78
2021/07/30 10:58:45;;;;;;;9.63;3.63;;;;;;;20.21;50.06;100756.75;5008118;28;20459;-78
2021/07/30 11:01:16;;;;;;;7.60;3.30;;;;;;;20.05;50.40;100719.66;4999726;28;20436;-78
2021/07/30 11:03:51;;;;;;;4.67;3.10;;;;;;;20.42;51.90;100754.94;4998824;28;20443;-77
2021/07/30 11:06:24;;;;;;;5.60;3.70;;;;;;;20.36;52.07;100753.28;4998994;28;20442;-79
2021/07/30 11:08:59;;;;;;;5.93;3.70;;;;;;;20.16;52.83;100753.19;5001119;28;20471;-78
2021/07/30 11:11:47;;;;;;;5.97;3.60;;;;;;;20.40;52.42;100748.94;4997002;28;20562;-76